Time;durP1;ratioP1;P1;durP2;ratioP2;P2;SDS_P1;SDS_P2;PMS_P1;PMS_P2;Temp;Humidity;BMP_temperature;BMP_pressure;BME280_temperature;BME280_humidity;BME280_pressure;Samples;Min_cycle;Max_cycle;Signal;HPM_P1;HPM_P2
2022/03/09 00:01:15;;;;;;;23.60;12.05;;;;;;;2.96;66.78;102124.72;5036988;28;20494;-56
2022/03/09 00:03:41;;;;;;;26.50;11.85;;;;;;;2.94;68.72;102130.09;5027758;28;20039;-56
2022/03/09 00:06:06;;;;;;;24.20;11.95;;;;;;;2.92;68.67;102124.03;5038589;28;20109;-56
2022/03/09 00:08:32;;;;;;;24.77;12.52;;;;;;;2.91;69.48;102134.69;5044828;28;20430;-56
2022/03/09 00:10:58;;;;;;;24.48;11.68;;;;;;;2.85;67.40;102124.44;5041231;28;20762;-56
2022/03/09 00:13:23;;;;;;;25.08;12.35;;;;;;;2.82;69.31;102137.78;5036267;28;20302;-55
2022/03/09 00:15:48;;;;;;;27.27;11.73;;;;;;;2.74;68.86;102136.38;5050868;28;20032;-55
2022/03/09 00:18:13;;;;;;;24.92;11.75;;;;;;;2.70;70.49;102136.63;5047467;28;20358;-56
2022/03/09 00:20:39;;;;;;;30.67;11.77;;;;;;;2.69;70.03;102137.56;5051082;28;20021;-56
2022/03/09 00:23:04;;;;;;;22.75;11.60;;;;;;;2.64;68.89;102139.59;5040959;28;20112;-56
2022/03/09 00:25:29;;;;;;;24.85;11.25;;;;;;;2.63;71.07;102132.59;5034743;28;20107;-55
2022/03/09 00:27:55;;;;;;;24.27;11.23;;;;;;;2.57;69.34;102123.22;5039795;28;20115;-56
2022/03/09 00:30:20;;;;;;;18.25;10.15;;;;;;;2.55;69.46;102135.63;5054825;28;20055;-56
2022/03/09 00:32:45;;;;;;;22.80;10.98;;;;;;;2.47;68.66;102127.25;5030256;28;20544;-56
2022/03/09 00:35:11;;;;;;;20.27;10.77;;;;;;;2.47;70.75;102136.00;5053270;28;20118;-56
2022/03/09 00:37:37;;;;;;;20.13;10.38;;;;;;;2.45;70.86;102140.50;5045047;28;20079;-56
2022/03/09 00:40:03;;;;;;;26.23;9.93;;;;;;;2.44;69.99;102144.06;5036149;28;20112;-56
2022/03/09 00:42:28;;;;;;;23.90;9.90;;;;;;;2.43;71.08;102145.84;5042244;28;20016;-56
2022/03/09 00:44:54;;;;;;;23.00;10.15;;;;;;;2.42;70.02;102133.59;5036694;28;20294;-56
2022/03/09 00:47:19;;;;;;;20.45;9.43;;;;;;;2.43;68.29;102129.19;5030595;28;20235;-56
2022/03/09 00:49:44;;;;;;;22.95;10.35;;;;;;;2.40;68.54;102131.97;5044922;28;20135;-55
2022/03/09 00:52:09;;;;;;;22.00;9.23;;;;;;;2.37;69.62;102135.59;5055268;28;20100;-56
2022/03/09 00:54:34;;;;;;;20.50;9.52;;;;;;;2.34;70.21;102133.13;5041394;28;20114;-56
2022/03/09 00:57:00;;;;;;;20.00;9.52;;;;;;;2.32;69.23;102137.59;5033022;28;20044;-56
2022/03/09 00:59:25;;;;;;;22.23;9.68;;;;;;;2.24;67.99;102137.13;5035036;28;20224;-55
2022/03/09 01:01:50;;;;;;;18.85;10.10;;;;;;;2.21;70.72;102138.16;5036638;28;20118;-56
2022/03/09 01:04:16;;;;;;;21.17;8.80;;;;;;;2.19;69.73;102131.22;5037014;28;20140;-56
2022/03/09 01:06:41;;;;;;;21.23;9.23;;;;;;;2.18;69.67;102135.66;5053724;28;20025;-56
2022/03/09 01:09:06;;;;;;;20.50;9.40;;;;;;;2.17;70.57;102136.59;5038921;28;20132;-56
2022/03/09 01:11:31;;;;;;;24.23;9.50;;;;;;;2.15;71.05;102135.78;5033548;28;20795;-56
2022/03/09 01:13:57;;;;;;;22.77;9.40;;;;;;;2.11;70.74;102136.88;5035014;28;20061;-56
2022/03/09 01:16:22;;;;;;;18.42;9.20;;;;;;;2.07;71.06;102132.72;5055147;28;20491;-56
2022/03/09 01:18:48;;;;;;;19.10;9.65;;;;;;;2.06;70.31;102136.25;5044293;28;20416;-56
2022/03/09 01:21:13;;;;;;;18.80;9.43;;;;;;;2.04;70.03;102136.31;5035789;28;20021;-56
2022/03/09 01:23:38;;;;;;;21.05;10.10;;;;;;;1.98;71.13;102130.50;5052601;28;20451;-56
2022/03/09 01:26:03;;;;;;;24.02;10.25;;;;;;;1.98;72.34;102130.50;5052546;28;20072;-56
2022/03/09 01:28:29;;;;;;;20.98;9.88;;;;;;;1.99;72.06;102137.50;5053802;28;20029;-56
2022/03/09 01:30:54;;;;;;;18.60;9.32;;;;;;;1.94;72.02;102136.84;5036649;28;20575;-55
2022/03/09 01:33:19;;;;;;;18.25;8.95;;;;;;;1.89;71.63;102136.22;5047141;28;20139;-56
2022/03/09 01:35:45;;;;;;;19.98;8.50;;;;;;;1.86;70.78;102140.69;5034095;28;20060;-56
2022/03/09 01:38:11;;;;;;;19.70;9.75;;;;;;;1.84;73.17;102137.28;5034764;28;20032;-55
2022/03/09 01:40:36;;;;;;;23.17;9.80;;;;;;;1.83;72.19;102132.94;5038941;28;20082;-56
2022/03/09 01:43:02;;;;;;;23.80;8.93;;;;;;;1.82;73.42;102131.22;5049659;28;20535;-56
2022/03/09 01:45:27;;;;;;;18.55;9.45;;;;;;;1.78;72.96;102128.81;5034109;28;20021;-56
2022/03/09 01:47:53;;;;;;;18.02;8.95;;;;;;;1.74;74.05;102125.47;5039088;28;20024;-56
2022/03/09 01:50:18;;;;;;;18.23;9.18;;;;;;;1.75;73.19;102136.84;5044347;28;20038;-56
2022/03/09 01:52:43;;;;;;;19.65;9.70;;;;;;;1.71;72.50;102125.59;5043298;28;20478;-56
2022/03/09 01:55:10;;;;;;;17.42;9.15;;;;;;;1.69;72.42;102119.56;5053434;28;20325;-55
2022/03/09 01:57:35;;;;;;;17.55;9.13;;;;;;;1.69;74.52;102124.81;5044825;28;20111;-56
2022/03/09 02:00:03;;;;;;;19.50;9.68;;;;;;;1.67;73.42;102121.41;5053177;28;20123;-56
2022/03/09 02:02:28;;;;;;;20.63;10.60;;;;;;;1.63;73.95;102111.94;5052277;28;20222;-56
2022/03/09 02:04:54;;;;;;;19.73;10.25;;;;;;;1.63;74.79;102107.53;5041131;28;20089;-54
2022/03/09 02:09:41;;;;;;;21.88;10.35;;;;;;;1.62;73.72;102108.47;5051013;28;20167;-54
2022/03/09 02:10:06;;;;;;;22.95;10.10;;;;;;;1.58;71.96;102116.56;5051590;28;20351;-56
2022/03/09 02:12:31;;;;;;;18.33;9.40;;;;;;;1.53;72.46;102123.81;5049066;28;20379;-55
2022/03/09 02:14:57;;;;;;;23.67;9.75;;;;;;;1.51;74.30;102123.03;5032437;28;20056;-55
2022/03/09 02:17:27;;;;;;;19.30;10.15;;;;;;;1.47;73.87;102130.22;5033297;28;20082;-55
2022/03/09 02:19:54;;;;;;;19.92;9.98;;;;;;;1.44;74.61;102127.75;5041311;28;20114;-55
2022/03/09 02:22:19;;;;;;;22.17;9.98;;;;;;;1.40;74.28;102134.91;5048946;28;20483;-55
2022/03/09 02:24:45;;;;;;;18.65;9.90;;;;;;;1.39;74.89;102127.09;5044800;28;20156;-55
2022/03/09 02:27:10;;;;;;;21.60;10.02;;;;;;;1.34;75.00;102123.81;5041945;28;20357;-55
2022/03/09 02:29:36;;;;;;;19.55;10.15;;;;;;;1.33;74.92;102125.59;5039817;28;20360;-55
2022/03/09 02:32:02;;;;;;;21.02;10.32;;;;;;;1.32;75.30;102121.25;5032175;28;20442;-55
2022/03/09 02:34:29;;;;;;;21.98;10.23;;;;;;;1.32;74.40;102120.41;5043357;28;20464;-55
2022/03/09 02:36:54;;;;;;;18.63;9.80;;;;;;;1.29;75.74;102116.13;5054004;28;20115;-55
2022/03/09 02:39:19;;;;;;;20.90;9.95;;;;;;;1.27;75.50;102108.31;5051623;28;20064;-55
2022/03/09 02:41:45;;;;;;;21.15;9.77;;;;;;;1.26;75.53;102105.75;5044420;28;20037;-55
2022/03/09 02:44:10;;;;;;;24.02;10.35;;;;;;;1.22;74.45;102098.91;5032836;28;20380;-55
2022/03/09 02:46:35;;;;;;;25.42;10.05;;;;;;;1.22;75.84;102102.41;5041244;28;20052;-55
2022/03/09 02:49:00;;;;;;;24.55;10.23;;;;;;;1.22;75.78;102093.66;5052130;28;20424;-55
2022/03/09 02:51:26;;;;;;;22.13;10.45;;;;;;;1.19;76.61;102097.28;5045143;28;20044;-55
2022/03/09 02:53:51;;;;;;;22.60;9.90;;;;;;;1.20;76.97;102095.50;5043766;28;20047;-55
2022/03/09 02:56:16;;;;;;;19.50;10.48;;;;;;;1.17;75.88;102100.91;5052034;28;20024;-55
2022/03/09 02:58:45;;;;;;;21.08;10.25;;;;;;;1.11;76.42;102097.63;5052429;28;20336;-55
2022/03/09 03:01:13;;;;;;;17.55;9.52;;;;;;;1.10;77.82;102101.19;5044046;28;20478;-55
2022/03/09 03:03:39;;;;;;;21.45;10.07;;;;;;;1.06;76.75;102099.59;5035628;28;20075;-55
2022/03/09 03:06:04;;;;;;;22.52;9.80;;;;;;;1.01;76.48;102098.94;5046702;28;20443;-55
2022/03/09 03:08:30;;;;;;;23.30;10.10;;;;;;;1.00;76.43;102099.03;5051008;28;20021;-55
2022/03/09 03:10:56;;;;;;;30.33;10.25;;;;;;;0.96;77.37;102103.56;5051221;28;20653;-55
2022/03/09 03:13:21;;;;;;;21.13;10.25;;;;;;;0.92;76.66;102102.00;5045072;28;20892;-55
2022/03/09 03:15:46;;;;;;;20.35;9.95;;;;;;;0.89;77.46;102102.97;5044454;28;20039;-55
2022/03/09 03:18:11;;;;;;;21.38;10.32;;;;;;;0.90;77.31;102096.81;5035855;28;20281;-55
2022/03/09 03:20:37;;;;;;;24.13;9.75;;;;;;;0.89;77.55;102096.88;5036214;28;20021;-55
2022/03/09 03:23:02;;;;;;;27.27;10.38;;;;;;;0.90;78.97;102103.81;5036498;28;20037;-55
2022/03/09 03:25:27;;;;;;;21.92;10.48;;;;;;;0.89;78.44;102099.50;5039818;28;20086;-55
2022/03/09 03:27:52;;;;;;;26.95;9.90;;;;;;;0.85;76.73;102098.78;5055188;28;20032;-55
2022/03/09 03:30:18;;;;;;;22.88;9.90;;;;;;;0.84;77.87;102104.97;5055937;28;20498;-55
2022/03/09 03:32:43;;;;;;;23.00;10.32;;;;;;;0.82;78.01;102106.81;5045222;28;20191;-55
2022/03/09 03:35:09;;;;;;;22.92;10.50;;;;;;;0.79;77.57;102101.69;5042357;28;20037;-55
2022/03/09 03:37:34;;;;;;;23.42;10.10;;;;;;;0.77;78.48;102100.06;5036265;28;20132;-55
2022/03/09 03:39:59;;;;;;;20.80;9.73;;;;;;;0.75;78.73;102092.22;5055030;28;20051;-55
2022/03/09 03:42:25;;;;;;;22.27;9.90;;;;;;;0.74;78.41;102106.28;5056311;28;20028;-55
2022/03/09 03:44:50;;;;;;;21.88;10.52;;;;;;;0.71;77.92;102099.41;5047815;28;20028;-55
2022/03/09 03:47:15;;;;;;;22.23;10.05;;;;;;;0.69;77.38;102103.00;5046428;28;20493;-55
2022/03/09 03:49:41;;;;;;;26.88;10.15;;;;;;;0.68;76.94;102104.78;5037920;28;20712;-55
2022/03/09 03:52:06;;;;;;;25.00;10.23;;;;;;;0.70;78.38;102102.09;5037913;28;20079;-55
2022/03/09 03:54:31;;;;;;;26.88;9.95;;;;;;;0.68;77.18;102101.28;5021659;28;20400;-55
2022/03/09 03:56:57;;;;;;;20.63;9.50;;;;;;;0.66;77.53;102103.13;5055814;28;20082;-55
2022/03/09 03:59:22;;;;;;;21.50;9.52;;;;;;;0.64;77.92;102107.59;5055616;28;20021;-55
2022/03/09 04:01:47;;;;;;;20.10;9.82;;;;;;;0.62;78.35;102097.16;5056270;28;20115;-55
2022/03/09 04:04:13;;;;;;;26.15;10.35;;;;;;;0.60;77.82;102103.41;5054318;28;20370;-55
2022/03/09 04:06:38;;;;;;;24.75;10.50;;;;;;;0.54;76.72;102099.25;5040411;28;20029;-55
2022/03/09 04:09:03;;;;;;;21.88;10.48;;;;;;;0.50;78.33;102100.31;5035313;28;20199;-55
2022/03/09 04:11:28;;;;;;;26.00;10.80;;;;;;;0.47;78.09;102101.28;5035301;28;20278;-55
2022/03/09 04:13:54;;;;;;;20.27;9.95;;;;;;;0.46;79.13;102103.97;5052454;28;20111;-55
2022/03/09 04:16:19;;;;;;;26.88;10.30;;;;;;;0.45;79.49;102108.38;5054743;28;20029;-55
2022/03/09 04:18:44;;;;;;;21.88;10.00;;;;;;;0.42;79.01;102099.78;5036115;28;20107;-55
2022/03/09 04:21:10;;;;;;;20.20;9.68;;;;;;;0.40;78.29;102105.09;5043268;28;20008;-55
2022/03/09 04:23:35;;;;;;;20.33;10.32;;;;;;;0.38;79.41;102103.47;5051885;28;20064;-55
2022/03/09 04:26:00;;;;;;;20.95;10.20;;;;;;;0.41;77.99;102101.56;5049779;28;20490;-55
2022/03/09 04:28:26;;;;;;;20.67;9.48;;;;;;;0.42;77.93;102105.03;5045293;28;20287;-55
2022/03/09 04:30:52;;;;;;;27.80;10.40;;;;;;;0.42;79.13;102095.34;5039431;28;20198;-55
2022/03/09 04:33:17;;;;;;;22.15;9.32;;;;;;;0.43;79.02;102099.69;5038144;28;20556;-55
2022/03/09 04:35:42;;;;;;;23.60;9.98;;;;;;;0.44;79.44;102090.03;5035357;28;20114;-54
2022/03/09 04:38:08;;;;;;;20.80;10.23;;;;;;;0.42;79.41;102091.88;5053481;28;20048;-55
2022/03/09 04:40:33;;;;;;;21.58;10.05;;;;;;;0.37;77.84;102092.06;5053739;28;20033;-55
2022/03/09 04:42:58;;;;;;;20.75;9.18;;;;;;;0.34;79.00;102090.44;5036055;28;20040;-54
2022/03/09 04:45:23;;;;;;;20.70;9.65;;;;;;;0.32;78.25;102092.28;5037277;28;20781;-54
2022/03/09 04:47:49;;;;;;;24.27;10.35;;;;;;;0.31;79.26;102095.81;5054364;28;20075;-54
2022/03/09 04:50:14;;;;;;;18.27;9.63;;;;;;;0.27;79.75;102101.25;5042719;28;20029;-55
2022/03/09 04:52:39;;;;;;;20.52;9.35;;;;;;;0.24;79.80;102102.25;5047009;28;20455;-55
2022/03/09 04:55:05;;;;;;;20.00;10.00;;;;;;;0.20;79.36;102094.53;5050451;28;20056;-55
2022/03/09 04:57:31;;;;;;;21.38;10.18;;;;;;;0.18;78.30;102097.22;5034030;28;20056;-56
2022/03/09 04:59:56;;;;;;;21.42;9.38;;;;;;;0.17;78.27;102098.13;5037569;28;20055;-56
2022/03/09 05:02:22;;;;;;;30.70;10.25;;;;;;;0.14;79.36;102093.03;5051056;28;20083;-55
2022/03/09 05:04:47;;;;;;;26.88;9.98;;;;;;;0.11;79.29;102094.00;5054967;28;20032;-55
2022/03/09 05:07:12;;;;;;;28.00;9.73;;;;;;;0.09;79.26;102097.63;5054859;28;20390;-55
2022/03/09 05:09:38;;;;;;;20.08;9.55;;;;;;;0.05;79.39;102091.66;5053656;28;20111;-55
2022/03/09 05:12:03;;;;;;;23.38;10.45;;;;;;;0.02;79.18;102086.50;5054102;28;20036;-55
2022/03/09 05:14:29;;;;;;;20.20;9.63;;;;;;;0.02;80.45;102094.38;5054670;28;20032;-55
2022/03/09 05:16:54;;;;;;;18.92;10.35;;;;;;;0.01;80.93;102094.44;5041734;28;20064;-55
2022/03/09 05:19:20;;;;;;;21.60;10.15;;;;;;;-0.03;80.23;102104.22;5051853;28;20028;-55
2022/03/09 05:21:45;;;;;;;21.65;10.20;;;;;;;-0.07;81.92;102097.38;5051320;28;20040;-55
2022/03/09 05:24:10;;;;;;;24.45;9.85;;;;;;;-0.11;80.57;102095.78;5017777;28;20032;-55
2022/03/09 05:26:36;;;;;;;21.75;9.45;;;;;;;-0.11;80.20;102101.03;5034139;28;20025;-55
2022/03/09 05:29:03;;;;;;;25.98;10.80;;;;;;;-0.12;80.81;102092.31;5034545;28;20350;-55
2022/03/09 05:31:28;;;;;;;21.25;9.73;;;;;;;-0.11;81.15;102101.91;5036019;28;20036;-55
2022/03/09 05:33:53;;;;;;;20.98;10.02;;;;;;;-0.14;81.30;102102.00;5044706;28;20025;-55
2022/03/09 05:36:19;;;;;;;20.33;10.18;;;;;;;-0.14;81.84;102096.75;5055871;28;20094;-55
2022/03/09 05:38:44;;;;;;;25.55;9.98;;;;;;;-0.16;81.57;102103.00;5044787;28;20060;-55
2022/03/09 05:41:09;;;;;;;19.30;9.90;;;;;;;-0.16;81.70;102109.09;5034171;28;20064;-55
2022/03/09 05:43:35;;;;;;;21.55;10.15;;;;;;;-0.18;81.77;102110.09;5053734;28;20055;-55
2022/03/09 05:46:00;;;;;;;21.45;10.13;;;;;;;-0.21;80.87;102117.16;5054470;28;20032;-55
2022/03/09 05:48:26;;;;;;;21.83;10.20;;;;;;;-0.21;80.98;102116.31;5053593;28;20033;-55
2022/03/09 05:50:51;;;;;;;25.00;9.95;;;;;;;-0.20;82.04;102107.53;5045023;28;20053;-55
2022/03/09 05:53:16;;;;;;;18.52;9.43;;;;;;;-0.22;81.41;102114.56;5039919;28;20055;-55
2022/03/09 05:55:41;;;;;;;22.10;10.10;;;;;;;-0.27;81.45;102122.66;5049402;28;20063;-56
2022/03/09 05:58:07;;;;;;;21.00;9.70;;;;;;;-0.31;81.35;102126.28;5048339;28;20017;-56
2022/03/09 06:00:32;;;;;;;19.58;10.00;;;;;;;-0.31;81.97;102130.69;5034630;28;20017;-56
2022/03/09 06:02:57;;;;;;;22.98;9.80;;;;;;;-0.33;82.42;102136.00;5016509;28;20223;-56
2022/03/09 06:05:23;;;;;;;21.55;10.38;;;;;;;-0.33;82.04;102133.38;5038918;28;20314;-56
2022/03/09 06:07:49;;;;;;;25.05;9.75;;;;;;;-0.34;82.46;102141.31;5053651;28;20213;-56
2022/03/09 06:10:14;;;;;;;23.75;9.52;;;;;;;-0.35;82.07;102139.63;5051811;28;20452;-56
2022/03/09 06:12:40;;;;;;;26.00;10.20;;;;;;;-0.34;82.81;102138.69;5034659;28;20046;-56
2022/03/09 06:15:06;;;;;;;21.80;10.00;;;;;;;-0.32;82.93;102142.97;5053314;28;20466;-56
2022/03/09 06:17:31;;;;;;;22.67;10.02;;;;;;;-0.30;83.12;102146.41;5037093;28;20024;-55
2022/03/09 06:19:56;;;;;;;24.65;10.23;;;;;;;-0.30;82.63;102142.94;5041112;28;20040;-56
2022/03/09 06:22:22;;;;;;;21.70;10.07;;;;;;;-0.31;82.21;102147.28;5052791;28;20032;-56
2022/03/09 06:24:47;;;;;;;31.30;10.32;;;;;;;-0.30;83.25;102148.19;5032931;28;20067;-56
2022/03/09 06:27:12;;;;;;;23.17;10.07;;;;;;;-0.31;83.59;102149.91;5038239;28;20070;-56
2022/03/09 06:29:38;;;;;;;23.50;11.48;;;;;;;-0.31;82.49;102157.78;5033389;28;20094;-56
2022/03/09 06:32:04;;;;;;;24.40;10.82;;;;;;;-0.30;82.74;102156.91;5051927;28;20017;-56
2022/03/09 06:34:29;;;;;;;22.52;10.02;;;;;;;-0.30;83.22;102156.91;5033400;28;20091;-55
2022/03/09 06:36:54;;;;;;;24.38;10.80;;;;;;;-0.29;83.71;102158.63;5052225;28;20040;-54
2022/03/09 06:39:20;;;;;;;26.27;11.32;;;;;;;-0.26;82.16;102160.25;5043934;28;20047;-55
2022/03/09 06:41:46;;;;;;;24.35;10.18;;;;;;;-0.25;82.33;102167.22;5050607;28;20021;-54
2022/03/09 06:44:13;;;;;;;24.23;10.82;;;;;;;-0.22;82.94;102172.34;5052059;28;20212;-57
2022/03/09 06:46:39;;;;;;;24.95;10.65;;;;;;;-0.21;84.27;102167.03;5052399;28;20111;-57
2022/03/09 06:49:04;;;;;;;23.63;11.25;;;;;;;-0.17;82.21;102173.03;5050506;28;20122;-54
2022/03/09 06:51:30;;;;;;;25.70;11.88;;;;;;;-0.15;83.03;102176.47;5048871;28;20021;-56
2022/03/09 06:53:56;;;;;;;25.33;11.38;;;;;;;-0.08;83.40;102182.34;5053311;28;20056;-57
2022/03/09 06:56:21;;;;;;;21.20;10.88;;;;;;;-0.04;83.11;102189.16;5051322;28;20029;-56
2022/03/09 06:58:46;;;;;;;22.95;10.75;;;;;;;0.01;83.23;102186.38;5051905;28;20157;-55
2022/03/09 07:01:12;;;;;;;34.53;11.07;;;;;;;0.06;82.46;102187.91;5046083;28;20324;-55
2022/03/09 07:03:38;;;;;;;25.40;11.00;;;;;;;0.11;81.95;102195.59;5037321;28;20029;-54
2022/03/09 07:06:03;;;;;;;26.00;10.65;;;;;;;0.14;80.31;102187.59;5033513;28;20025;-55
2022/03/09 07:08:28;;;;;;;26.00;10.90;;;;;;;0.18;80.74;102199.69;5047139;28;20393;-54
2022/03/09 07:10:54;;;;;;;24.40;11.40;;;;;;;0.26;81.53;102202.88;5043225;28;20037;-54
2022/03/09 07:13:19;;;;;;;23.40;11.07;;;;;;;0.32;80.22;102201.78;5045745;28;20030;-55
2022/03/09 07:15:44;;;;;;;29.30;10.88;;;;;;;0.37;80.97;102202.44;5053032;28;20375;-55
2022/03/09 07:18:10;;;;;;;31.15;11.40;;;;;;;0.45;81.78;102203.00;5045951;28;20050;-55
2022/03/09 07:20:35;;;;;;;24.55;11.68;;;;;;;0.53;79.94;102208.78;5050542;28;20398;-55
2022/03/09 07:23:00;;;;;;;21.45;10.13;;;;;;;0.62;80.33;102209.34;5043581;28;20047;-54
2022/03/09 07:25:26;;;;;;;25.75;11.38;;;;;;;0.68;80.42;102209.06;5025476;28;20036;-55
2022/03/09 07:27:51;;;;;;;30.27;11.10;;;;;;;0.77;80.38;102206.06;5047021;28;20028;-55
2022/03/09 07:30:17;;;;;;;27.67;11.60;;;;;;;0.86;79.19;102204.84;5048375;28;20489;-55
2022/03/09 07:32:42;;;;;;;22.95;9.88;;;;;;;0.96;77.42;102193.00;5052023;28;20021;-55
2022/03/09 07:35:09;;;;;;;23.02;11.05;;;;;;;1.09;79.02;102202.06;5051339;28;20036;-55
2022/03/09 07:37:35;;;;;;;24.90;10.43;;;;;;;1.20;77.11;102200.75;5052571;28;20451;-56
2022/03/09 07:40:01;;;;;;;23.00;10.80;;;;;;;1.32;75.72;102194.09;5050285;28;20028;-55
2022/03/09 07:42:26;;;;;;;29.60;10.90;;;;;;;1.43;74.74;102190.06;5031699;28;20133;-55
2022/03/09 07:44:51;;;;;;;24.75;10.60;;;;;;;1.56;74.85;102193.03;5035921;28;20109;-55
2022/03/09 07:47:17;;;;;;;28.92;10.68;;;;;;;1.68;74.61;102196.84;5038137;28;20036;-55
2022/03/09 07:49:43;;;;;;;26.63;9.73;;;;;;;1.77;73.58;102188.53;5039757;28;20045;-55
2022/03/09 07:52:08;;;;;;;26.50;10.68;;;;;;;1.92;73.32;102183.47;5052786;28;20024;-57
2022/03/09 07:54:34;;;;;;;21.40;9.93;;;;;;;2.03;72.37;102194.38;5052249;28;20029;-56
2022/03/09 07:57:01;;;;;;;23.70;10.20;;;;;;;2.15;72.09;102196.41;5030224;28;20422;-55
2022/03/09 07:59:27;;;;;;;23.38;10.93;;;;;;;2.26;71.41;102198.56;5036019;28;20040;-55
2022/03/09 08:01:53;;;;;;;23.52;10.85;;;;;;;2.38;71.31;102197.09;5017839;28;20044;-55
2022/03/09 08:04:20;;;;;;;26.17;11.05;;;;;;;2.49;71.71;102197.41;5037940;28;20028;-55
2022/03/09 08:06:48;;;;;;;24.65;10.70;;;;;;;2.64;69.33;102206.38;5050066;28;20028;-55
2022/03/09 08:09:13;;;;;;;25.45;10.43;;;;;;;2.75;69.70;102206.69;5049550;28;20123;-56
2022/03/09 08:11:38;;;;;;;26.50;11.70;;;;;;;2.87;69.83;102212.25;5034634;28;20379;-55
2022/03/09 08:14:03;;;;;;;32.35;11.02;;;;;;;2.99;67.55;102220.44;5041969;28;20068;-55
2022/03/09 08:16:29;;;;;;;25.10;10.57;;;;;;;3.09;67.91;102214.66;5054264;28;20100;-53
2022/03/09 08:18:54;;;;;;;23.30;10.45;;;;;;;3.21;68.13;102213.19;5040722;28;20033;-55
2022/03/09 08:21:19;;;;;;;26.15;11.10;;;;;;;3.31;68.08;102220.56;5033988;28;20299;-55
2022/03/09 08:23:45;;;;;;;26.23;11.30;;;;;;;3.43;65.90;102223.47;5041070;28;20036;-56
2022/03/09 08:26:10;;;;;;;23.38;10.45;;;;;;;3.54;64.39;102215.84;5046395;28;20721;-56
2022/03/09 08:28:35;;;;;;;20.15;10.75;;;;;;;3.61;64.58;102211.09;5043744;28;20109;-55
2022/03/09 08:31:01;;;;;;;25.65;10.77;;;;;;;3.72;64.97;102219.31;5037475;28;20366;-56
2022/03/09 08:33:26;;;;;;;29.75;10.95;;;;;;;3.80;65.50;102217.13;5037108;28;20064;-55
2022/03/09 08:35:53;;;;;;;26.52;10.10;;;;;;;3.89;63.91;102216.59;5050393;28;20148;-56
2022/03/09 08:38:18;;;;;;;24.02;10.88;;;;;;;3.99;66.16;102219.59;5035004;28;20033;-56
2022/03/09 08:40:43;;;;;;;26.65;11.75;;;;;;;4.09;63.78;102223.44;5053171;28;20036;-55
2022/03/09 08:43:09;;;;;;;23.45;10.85;;;;;;;4.20;63.69;102229.91;5055085;28;20048;-56
2022/03/09 08:45:34;;;;;;;24.92;11.20;;;;;;;4.30;63.08;102236.41;5051767;28;20382;-56
2022/03/09 08:47:59;;;;;;;23.23;11.18;;;;;;;4.40;64.41;102236.75;5044209;28;20793;-56
2022/03/09 08:50:25;;;;;;;22.70;10.80;;;;;;;4.51;63.43;102239.63;5044318;28;20036;-56
2022/03/09 08:52:50;;;;;;;27.13;12.05;;;;;;;4.62;62.53;102239.88;5046876;28;20452;-56
2022/03/09 08:55:15;;;;;;;24.45;11.48;;;;;;;4.72;63.00;102232.25;5053111;28;20036;-56
2022/03/09 08:57:41;;;;;;;22.70;11.15;;;;;;;4.84;63.10;102234.19;5054566;28;20082;-56
2022/03/09 09:00:07;;;;;;;20.00;10.40;;;;;;;4.97;61.86;102231.69;5054081;28;20134;-56
2022/03/09 09:02:32;;;;;;;25.13;11.23;;;;;;;5.12;61.28;102234.34;5037476;28;20186;-56
2022/03/09 09:04:58;;;;;;;29.15;11.35;;;;;;;5.25;61.06;102235.31;5054398;28;20188;-56
2022/03/09 09:07:24;;;;;;;26.70;11.82;;;;;;;5.41;62.34;102229.94;5055509;28;20285;-54
2022/03/09 09:09:49;;;;;;;26.40;11.80;;;;;;;5.56;60.12;102234.31;5049167;28;20055;-57
2022/03/09 09:12:14;;;;;;;20.60;11.35;;;;;;;5.70;60.73;102224.66;5043006;28;20068;-56
2022/03/09 09:14:40;;;;;;;27.42;11.80;;;;;;;5.77;58.15;102221.53;5036337;28;20404;-56
2022/03/09 09:17:05;;;;;;;26.85;11.13;;;;;;;5.84;57.71;102219.34;5053451;28;20024;-53
2022/03/09 09:19:31;;;;;;;28.20;11.13;;;;;;;5.99;56.88;102225.50;5053261;28;20028;-54
2022/03/09 09:21:56;;;;;;;26.15;11.23;;;;;;;6.09;57.59;102224.00;5046096;28;20036;-55
2022/03/09 09:24:22;;;;;;;27.95;11.00;;;;;;;6.25;58.69;102218.53;5048311;28;20067;-55
2022/03/09 09:26:47;;;;;;;21.63;11.63;;;;;;;6.37;56.79;102219.56;5051502;28;20036;-55
2022/03/09 09:29:13;;;;;;;25.00;10.75;;;;;;;6.49;55.83;102223.22;5046474;28;20328;-55
2022/03/09 09:31:38;;;;;;;23.42;11.35;;;;;;;6.62;54.06;102217.94;5043779;28;20276;-55
2022/03/09 09:34:04;;;;;;;23.77;11.43;;;;;;;6.77;54.84;102216.06;5041297;28;20471;-55
2022/03/09 09:36:29;;;;;;;25.13;11.63;;;;;;;6.90;56.16;102220.44;5053528;28;20478;-55
2022/03/09 09:38:55;;;;;;;26.00;11.52;;;;;;;7.00;53.21;102223.34;5054489;28;20398;-55
2022/03/09 09:41:24;;;;;;;23.90;11.88;;;;;;;7.15;53.46;102216.16;5042827;28;20075;-55
2022/03/09 09:43:50;;;;;;;26.67;11.88;;;;;;;7.26;49.87;102224.25;5034336;28;20033;-55
2022/03/09 09:46:15;;;;;;;29.77;12.93;;;;;;;7.39;49.15;102223.38;5035175;28;20564;-56
2022/03/09 09:48:42;;;;;;;26.15;12.73;;;;;;;7.49;50.19;102218.28;5036277;28;20036;-55
2022/03/09 09:51:08;;;;;;;30.02;12.98;;;;;;;7.63;52.70;102223.47;5043202;28;20033;-55
2022/03/09 09:53:35;;;;;;;27.48;12.38;;;;;;;7.78;50.39;102217.06;5052476;28;20089;-55
2022/03/09 09:56:01;;;;;;;31.88;12.57;;;;;;;7.94;49.01;102227.47;5048035;28;20017;-55
2022/03/09 09:58:28;;;;;;;28.50;13.50;;;;;;;8.01;47.21;102223.41;5032808;28;20040;-55
2022/03/09 10:00:54;;;;;;;31.17;12.80;;;;;;;8.12;48.09;102224.44;5035000;28;20067;-56
2022/03/09 10:03:20;;;;;;;29.38;13.32;;;;;;;8.23;48.20;102221.84;5032955;28;20021;-56
2022/03/09 10:05:45;;;;;;;26.60;13.18;;;;;;;8.35;47.06;102228.94;5047028;28;20080;-55
2022/03/09 10:08:14;;;;;;;28.38;13.27;;;;;;;8.45;48.19;102234.47;5052992;28;20067;-56
2022/03/09 10:10:52;;;;;;;32.67;14.20;;;;;;;8.60;47.69;102227.16;5033148;28;20051;-56
2022/03/09 10:13:17;;;;;;;27.48;12.90;;;;;;;8.78;48.24;102235.59;5037466;28;20124;-56
2022/03/09 10:15:45;;;;;;;30.75;13.20;;;;;;;8.99;47.79;102227.78;5051399;28;20093;-57
2022/03/09 10:18:21;;;;;;;33.83;13.15;;;;;;;9.13;47.42;102224.06;5040452;28;20392;-55
2022/03/09 10:20:50;;;;;;;31.98;13.50;;;;;;;9.33;46.49;102217.19;5025468;28;20159;-56
2022/03/09 10:23:17;;;;;;;29.88;13.60;;;;;;;9.45;47.37;102218.94;5052018;28;20338;-55
2022/03/09 10:25:43;;;;;;;28.15;13.60;;;;;;;9.62;46.92;102214.94;5041798;28;20294;-55
2022/03/09 10:28:10;;;;;;;33.28;14.63;;;;;;;9.64;45.46;102202.31;5053463;28;20043;-55
2022/03/09 10:30:39;;;;;;;36.13;14.75;;;;;;;9.77;45.04;102204.84;5044787;28;20131;-55
2022/03/09 10:33:12;;;;;;;31.02;14.90;;;;;;;9.97;45.62;102200.59;5052170;28;20051;-54
2022/03/09 10:35:43;;;;;;;36.35;15.07;;;;;;;10.11;44.65;102209.31;5047119;28;20252;-56
2022/03/09 10:38:24;;;;;;;35.20;15.27;;;;;;;10.18;44.99;102203.34;5044707;28;20332;-55
2022/03/09 10:40:55;;;;;;;33.13;14.88;;;;;;;10.32;45.12;102206.72;5032293;28;20139;-56
2022/03/09 10:43:38;;;;;;;30.15;14.10;;;;;;;10.48;43.66;102207.16;5033505;28;20029;-56
2022/03/09 10:46:13;;;;;;;31.65;16.08;;;;;;;10.50;42.30;102204.38;5043112;28;20064;-56
2022/03/09 10:48:54;;;;;;;29.30;13.88;;;;;;;10.64;45.41;102199.59;5033437;28;20047;-56
2022/03/09 10:51:29;;;;;;;29.70;14.13;;;;;;;10.81;43.97;102208.84;5049570;28;20349;-56
2022/03/09 10:53:56;;;;;;;32.53;14.52;;;;;;;10.89;42.35;102207.34;5039318;28;20021;-55
2022/03/09 10:56:22;;;;;;;28.88;14.48;;;;;;;10.97;43.54;102196.88;5036792;28;20021;-55
2022/03/09 10:58:47;;;;;;;38.00;15.68;;;;;;;11.15;43.58;102206.00;5034797;28;20029;-55
2022/03/09 11:01:17;;;;;;;28.20;14.43;;;;;;;11.23;41.75;102209.81;5038173;28;20017;-55
2022/03/09 11:03:43;;;;;;;33.63;15.95;;;;;;;11.29;42.33;102202.13;5045678;28;20437;-55
2022/03/09 11:06:10;;;;;;;31.30;15.70;;;;;;;11.36;41.47;102205.97;5053584;28;20024;-56
2022/03/09 11:08:37;;;;;;;33.05;15.23;;;;;;;11.55;44.42;102210.56;5039590;28;20484;-55
2022/03/09 11:11:03;;;;;;;35.92;16.25;;;;;;;11.73;41.59;102205.44;5035395;28;20586;-56